createdAt,value
2023-03-30T00:01:15.083Z,98498.53
2023-03-30T00:03:45.451Z,98495.97
2023-03-30T00:06:14.767Z,98496.84
2023-03-30T00:08:41.390Z,98491.69
2023-03-30T00:11:10.148Z,98495.97
2023-03-30T00:13:37.016Z,98489.94
2023-03-30T00:16:04.479Z,98493.38
2023-03-30T00:18:31.077Z,98494.22
2023-03-30T00:20:58.566Z,98495.97
2023-03-30T00:23:25.604Z,98489.06
2023-03-30T00:25:52.178Z,98493.38
2023-03-30T00:28:18.820Z,98492.53
2023-03-30T00:30:45.415Z,98491.69
2023-03-30T00:33:12.023Z,98498.56
2023-03-30T00:35:38.658Z,98499.41
2023-03-30T00:38:05.943Z,98496.00
2023-03-30T00:40:33.494Z,98507.16
2023-03-30T00:43:04.245Z,98497.72
2023-03-30T00:45:31.341Z,98502.88
2023-03-30T00:48:00.629Z,98499.47
2023-03-30T00:50:40.682Z,98502.91
2023-03-30T00:53:12.868Z,98499.53
2023-03-30T00:55:40.640Z,98502.13
2023-03-30T00:58:10.014Z,98501.28
2023-03-30T01:00:38.529Z,98512.47
2023-03-30T01:03:09.563Z,98515.09
2023-03-30T01:05:37.511Z,98503.97
2023-03-30T01:08:07.671Z,98499.72
2023-03-30T01:10:35.049Z,98512.59
2023-03-30T01:13:01.952Z,98514.34
2023-03-30T01:15:34.722Z,98510.03
2023-03-30T01:18:27.677Z,98503.13
2023-03-30T01:21:07.707Z,98503.06
2023-03-30T01:23:37.770Z,98492.66
2023-03-30T01:26:24.733Z,98504.56
2023-03-30T01:29:00.932Z,98502.84
2023-03-30T01:31:36.637Z,98509.69
2023-03-30T01:34:05.925Z,98505.41
2023-03-30T01:36:32.522Z,98513.97
2023-03-30T01:39:17.923Z,98507.94
2023-03-30T01:41:56.424Z,98521.69
2023-03-30T01:44:32.090Z,98532.84
2023-03-30T01:47:06.463Z,98539.78
2023-03-30T01:49:43.666Z,98546.66
2023-03-30T01:52:13.038Z,98549.25
2023-03-30T01:54:44.413Z,98540.66
2023-03-30T01:57:22.418Z,98539.00
2023-03-30T02:00:01.408Z,98547.66
2023-03-30T02:02:30.621Z,98540.84
2023-03-30T02:04:59.343Z,98547.66
2023-03-30T02:07:28.357Z,98545.94
2023-03-30T02:09:58.423Z,98547.63
2023-03-30T02:12:25.893Z,98549.28
2023-03-30T02:14:53.313Z,98557.84
2023-03-30T02:17:23.491Z,98563.00
2023-03-30T02:19:50.825Z,98560.53
2023-03-30T02:22:18.739Z,98562.25
2023-03-30T02:24:46.250Z,98564.00
2023-03-30T02:27:13.157Z,98568.28
2023-03-30T02:29:42.361Z,98564.88
2023-03-30T02:32:15.115Z,98576.03
2023-03-30T02:34:49.288Z,98576.06
2023-03-30T02:37:34.908Z,98584.66
2023-03-30T02:40:13.451Z,98587.25
2023-03-30T02:42:42.834Z,98581.22
2023-03-30T02:45:12.255Z,98580.34
2023-03-30T02:47:57.487Z,98573.50
2023-03-30T02:50:34.002Z,98573.50
2023-03-30T02:53:06.283Z,98576.13
2023-03-30T02:56:04.103Z,98576.13
2023-03-30T02:58:40.664Z,98581.28
2023-03-30T03:01:14.911Z,98578.69
2023-03-30T03:03:46.344Z,98587.28
2023-03-30T03:06:14.807Z,98594.16
2023-03-30T03:08:43.189Z,98594.16
2023-03-30T03:11:10.061Z,98586.44
2023-03-30T03:13:37.770Z,98593.28
2023-03-30T03:16:04.992Z,98588.97
2023-03-30T03:18:31.557Z,98586.41
2023-03-30T03:20:58.771Z,98595.00
2023-03-30T03:23:25.599Z,98595.88
2023-03-30T03:25:52.231Z,98595.00
2023-03-30T03:28:18.932Z,98592.44
2023-03-30T03:30:45.906Z,98590.72
2023-03-30T03:33:12.544Z,98588.97
2023-03-30T03:35:39.505Z,98589.84
2023-03-30T03:38:07.755Z,98591.56
2023-03-30T03:40:34.394Z,98589.81
2023-03-30T03:43:01.113Z,98593.22
2023-03-30T03:45:27.701Z,98594.06
2023-03-30T03:47:54.365Z,98597.50
2023-03-30T03:50:21.503Z,98604.38
2023-03-30T03:52:48.164Z,98606.94
2023-03-30T03:55:14.771Z,98606.03
2023-03-30T03:57:41.676Z,98610.34
2023-03-30T04:00:16.464Z,98620.63
2023-03-30T04:02:43.677Z,98620.66
2023-03-30T04:05:10.824Z,98621.50
2023-03-30T04:07:37.683Z,98624.06
2023-03-30T04:10:05.027Z,98619.78
2023-03-30T04:12:31.745Z,98627.50
2023-03-30T04:14:58.423Z,98634.34
2023-03-30T04:17:25.798Z,98634.34
2023-03-30T04:19:53.880Z,98631.78
2023-03-30T04:22:24.239Z,98628.34
2023-03-30T04:24:51.414Z,98631.75
2023-03-30T04:27:18.035Z,98633.53
2023-03-30T04:29:44.825Z,98631.84
2023-03-30T04:32:12.816Z,98629.25
2023-03-30T04:34:42.724Z,98636.97
2023-03-30T04:37:10.043Z,98637.84
2023-03-30T04:39:37.085Z,98633.56
2023-03-30T04:42:04.286Z,98639.56
2023-03-30T04:44:31.288Z,98632.69
2023-03-30T04:46:57.864Z,98640.41
2023-03-30T04:49:24.455Z,98631.81
2023-03-30T04:51:51.631Z,98630.13
2023-03-30T04:54:18.231Z,98631.84
2023-03-30T04:56:44.862Z,98628.44
2023-03-30T04:59:12.105Z,98626.72
2023-03-30T05:01:38.713Z,98631.84
2023-03-30T05:04:05.511Z,98631.00
2023-03-30T05:06:32.197Z,98629.28
2023-03-30T05:08:58.825Z,98632.72
2023-03-30T05:11:26.210Z,98625.00
2023-03-30T05:13:54.046Z,98623.28
2023-03-30T05:16:22.002Z,98627.56
2023-03-30T05:18:51.326Z,98625.88
2023-03-30T05:21:18.271Z,98631.84
2023-03-30T05:23:44.859Z,98629.28
2023-03-30T05:26:11.479Z,98625.88
2023-03-30T05:28:38.072Z,98628.41
2023-03-30T05:31:04.827Z,98630.13
2023-03-30T05:33:31.581Z,98637.00
2023-03-30T05:35:58.165Z,98640.41
2023-03-30T05:38:24.737Z,98645.56
2023-03-30T05:40:54.523Z,98655.00
2023-03-30T05:43:21.457Z,98659.28
2023-03-30T05:45:48.347Z,98656.69
2023-03-30T05:48:14.902Z,98655.84
2023-03-30T05:50:42.881Z,98655.84
2023-03-30T05:53:09.796Z,98658.41
2023-03-30T05:55:36.444Z,98657.56
2023-03-30T05:58:04.060Z,98664.41
2023-03-30T06:00:33.539Z,98662.69
2023-03-30T06:03:00.486Z,98668.69
2023-03-30T06:05:27.517Z,98672.13
2023-03-30T06:07:54.449Z,98669.53
2023-03-30T06:10:21.394Z,98672.97
2023-03-30T06:12:47.985Z,98675.53
2023-03-30T06:15:14.556Z,98677.25
2023-03-30T06:17:41.141Z,98673.81
2023-03-30T06:20:11.305Z,98683.25
2023-03-30T06:22:38.366Z,98671.25
2023-03-30T06:25:05.190Z,98677.22
2023-03-30T06:27:32.256Z,98687.50
2023-03-30T06:29:58.978Z,98685.78
2023-03-30T06:32:25.575Z,98686.66
2023-03-30T06:34:53.170Z,98682.34
2023-03-30T06:37:20.536Z,98683.19
2023-03-30T06:39:47.093Z,98684.03
2023-03-30T06:42:13.731Z,98681.53
2023-03-30T06:44:40.254Z,98691.78
2023-03-30T06:47:07.739Z,98675.50
2023-03-30T06:49:34.360Z,98678.94
2023-03-30T06:52:04.366Z,98669.47
2023-03-30T06:54:32.226Z,98669.44
2023-03-30T06:56:59.123Z,98674.53
2023-03-30T06:59:25.911Z,98673.66
2023-03-30T07:01:52.867Z,98677.97
2023-03-30T07:04:19.697Z,98669.34
2023-03-30T07:06:46.319Z,98665.91
2023-03-30T07:09:13.188Z,98669.34
2023-03-30T07:11:39.762Z,98674.53
2023-03-30T07:14:07.530Z,98688.22
2023-03-30T07:16:34.308Z,98674.47
2023-03-30T07:19:00.916Z,98670.19
2023-03-30T07:21:27.540Z,98676.22
2023-03-30T07:23:54.185Z,98680.50
2023-03-30T07:26:21.342Z,98683.94
2023-03-30T07:28:48.065Z,98674.50
2023-03-30T07:31:14.883Z,98687.34
2023-03-30T07:33:41.953Z,98685.66
2023-03-30T07:36:08.841Z,98684.84
2023-03-30T07:38:35.474Z,98686.56
2023-03-30T07:41:06.254Z,98684.88
2023-03-30T07:43:32.897Z,98683.19
2023-03-30T07:45:59.542Z,98684.91
2023-03-30T07:48:26.551Z,98683.13
2023-03-30T07:50:59.938Z,98674.53
2023-03-30T07:53:26.475Z,98679.66
2023-03-30T07:55:53.171Z,98689.94
2023-03-30T07:58:20.258Z,98689.97
2023-03-30T08:00:48.603Z,98688.25
2023-03-30T08:03:15.909Z,98691.69
2023-03-30T08:05:42.796Z,98694.28
2023-03-30T08:08:09.498Z,98694.28
2023-03-30T08:10:36.597Z,98702.88
2023-03-30T08:13:03.198Z,98699.44
2023-03-30T08:15:29.816Z,98696.88
2023-03-30T08:17:56.708Z,98694.25
2023-03-30T08:20:23.358Z,98701.97
2023-03-30T08:22:49.923Z,98701.09
2023-03-30T08:25:16.622Z,98707.06
2023-03-30T08:27:43.150Z,98695.94
2023-03-30T08:30:10.649Z,98702.72
2023-03-30T08:32:37.265Z,98700.03
2023-03-30T08:35:03.951Z,98690.63
2023-03-30T08:37:30.624Z,98704.28
2023-03-30T08:39:57.244Z,98693.97
2023-03-30T08:42:43.812Z,98701.72
2023-03-30T08:45:11.951Z,98705.19
2023-03-30T08:47:40.169Z,98698.41
2023-03-30T08:50:15.342Z,98708.72
2023-03-30T08:52:42.519Z,98708.81
2023-03-30T08:55:29.300Z,98705.38
2023-03-30T08:58:09.162Z,98700.25
2023-03-30T09:00:49.459Z,98718.34
2023-03-30T09:03:23.757Z,98709.81
2023-03-30T09:05:55.302Z,98703.81
2023-03-30T09:08:23.497Z,98701.28
2023-03-30T09:10:53.993Z,98708.97
2023-03-30T09:13:22.780Z,98709.81
2023-03-30T09:15:52.296Z,98711.53
2023-03-30T09:18:27.624Z,98708.94
2023-03-30T09:20:55.516Z,98714.09
2023-03-30T09:23:22.513Z,98719.22
2023-03-30T09:25:53.479Z,98717.50
2023-03-30T09:28:35.150Z,98722.59
2023-03-30T09:31:04.235Z,98720.91
2023-03-30T09:33:43.372Z,98731.22
2023-03-30T09:36:13.101Z,98735.50
2023-03-30T09:38:41.980Z,98732.91
2023-03-30T09:41:21.977Z,98744.06
2023-03-30T09:43:49.920Z,98731.16
2023-03-30T09:46:17.225Z,98753.44
2023-03-30T09:48:47.852Z,98761.03
2023-03-30T09:51:15.966Z,98758.34
2023-03-30T09:53:44.530Z,98767.72
2023-03-30T09:56:17.894Z,98757.47
2023-03-30T09:58:44.522Z,98751.50
2023-03-30T10:01:20.151Z,98758.34
2023-03-30T10:04:05.800Z,98763.50
2023-03-30T10:06:36.261Z,98765.25
2023-03-30T10:09:05.288Z,98772.97
2023-03-30T10:11:41.188Z,98765.31
2023-03-30T10:14:21.076Z,98770.47
2023-03-30T10:16:47.731Z,98774.75
2023-03-30T10:19:16.923Z,98767.91
2023-03-30T10:21:47.122Z,98767.00
2023-03-30T10:24:23.796Z,98770.34
2023-03-30T10:26:51.664Z,98776.22
2023-03-30T10:29:19.828Z,98758.31
2023-03-30T10:31:48.302Z,98776.28
2023-03-30T10:34:21.755Z,98778.78
2023-03-30T10:36:50.573Z,98776.16
2023-03-30T10:39:23.574Z,98779.50
2023-03-30T10:41:50.700Z,98786.41
2023-03-30T10:44:20.461Z,98794.94
2023-03-30T10:46:48.761Z,98796.41
2023-03-30T10:49:39.546Z,98804.78
2023-03-30T10:52:14.617Z,98797.00
2023-03-30T10:54:44.087Z,98808.16
2023-03-30T10:57:13.708Z,98789.41
2023-03-30T10:59:43.360Z,98785.97
2023-03-30T11:02:26.640Z,98783.44
2023-03-30T11:05:00.449Z,98790.31
2023-03-30T11:07:56.510Z,98791.22
2023-03-30T11:10:29.296Z,98783.50
2023-03-30T11:12:59.356Z,98778.41
2023-03-30T11:15:29.620Z,98787.06
2023-03-30T11:18:14.747Z,98776.69
2023-03-30T11:20:43.796Z,98786.84
2023-03-30T11:23:18.586Z,98772.28
2023-03-30T11:26:04.217Z,98769.59
2023-03-30T11:28:43.007Z,98776.41
2023-03-30T11:31:40.208Z,98785.03
2023-03-30T11:34:17.659Z,98785.88
2023-03-30T11:37:04.456Z,98791.00
2023-03-30T11:39:37.044Z,98793.66
2023-03-30T11:42:18.260Z,98781.75
2023-03-30T11:44:44.934Z,98785.22
2023-03-30T11:47:30.300Z,98788.66
2023-03-30T11:50:12.937Z,98801.38
2023-03-30T11:52:56.639Z,98792.78
2023-03-30T11:55:26.228Z,98780.84
2023-03-30T11:58:14.749Z,98777.50
2023-03-30T12:00:48.338Z,98777.47
2023-03-30T12:03:35.977Z,98779.22
2023-03-30T12:06:11.856Z,98771.53
2023-03-30T12:08:42.539Z,98777.44
2023-03-30T12:11:15.196Z,98783.31
2023-03-30T12:13:51.154Z,98785.91
2023-03-30T12:16:22.270Z,98768.03
2023-03-30T12:19:09.150Z,98776.63
2023-03-30T12:21:52.352Z,98781.81
2023-03-30T12:24:24.877Z,98783.59
2023-03-30T12:27:04.683Z,98787.84
2023-03-30T12:32:19.936Z,98787.75
2023-03-30T12:34:46.693Z,98794.47
2023-03-30T12:37:16.571Z,98803.72
2023-03-30T12:39:50.800Z,98792.66
2023-03-30T12:42:27.906Z,98795.19
2023-03-30T12:45:05.645Z,98782.28
2023-03-30T12:47:38.360Z,98773.88
2023-03-30T12:50:11.081Z,98786.69
2023-03-30T12:52:40.776Z,98782.44
2023-03-30T12:55:23.749Z,98778.06
2023-03-30T12:58:08.951Z,98793.19
2023-03-30T13:00:46.051Z,98796.66
2023-03-30T13:03:19.146Z,98801.59
2023-03-30T13:05:49.719Z,98789.56
2023-03-30T13:08:22.828Z,98787.75
2023-03-30T13:10:49.395Z,98783.75
2023-03-30T13:13:18.227Z,98781.06
2023-03-30T13:15:50.936Z,98777.69
2023-03-30T13:18:17.462Z,98790.47
2023-03-30T13:20:47.162Z,98790.34
2023-03-30T13:23:13.695Z,98792.94
2023-03-30T13:25:44.680Z,98789.53
2023-03-30T13:28:30.331Z,98784.44
2023-03-30T13:31:00.298Z,98794.78
2023-03-30T13:33:27.455Z,98783.78
2023-03-30T13:35:59.926Z,98788.09
2023-03-30T13:38:35.685Z,98794.13
2023-03-30T13:41:08.294Z,98794.97
2023-03-30T13:43:47.304Z,98788.94
2023-03-30T13:46:17.417Z,98792.94
2023-03-30T13:48:50.787Z,98789.56
2023-03-30T13:51:20.908Z,98784.28
2023-03-30T13:53:51.986Z,98784.28
2023-03-30T13:56:19.597Z,98786.72
2023-03-30T13:58:50.481Z,98786.69
2023-03-30T14:01:19.725Z,98780.56
2023-03-30T14:03:49.220Z,98791.66
2023-03-30T14:06:18.078Z,98792.44
2023-03-30T14:08:47.943Z,98788.91
2023-03-30T14:11:17.528Z,98775.31
2023-03-30T14:13:44.935Z,98785.41
2023-03-30T14:16:13.651Z,98788.66
2023-03-30T14:18:40.291Z,98793.78
2023-03-30T14:21:10.830Z,98786.97
2023-03-30T14:23:43.076Z,98790.34
2023-03-30T14:26:13.098Z,98800.50
2023-03-30T14:28:42.286Z,98807.19
2023-03-30T14:31:13.801Z,98803.69
2023-03-30T14:33:41.085Z,98807.13
2023-03-30T14:36:09.812Z,98807.16
2023-03-30T14:38:39.398Z,98807.16
2023-03-30T14:41:12.258Z,98809.69
2023-03-30T14:43:40.719Z,98808.03
2023-03-30T14:46:10.160Z,98825.78
2023-03-30T14:48:38.177Z,98810.41
2023-03-30T14:51:10.394Z,98808.69
2023-03-30T14:53:37.053Z,98815.47
2023-03-30T14:56:04.274Z,98806.91
2023-03-30T14:58:32.064Z,98805.25
2023-03-30T15:01:00.132Z,98809.50
2023-03-30T15:03:33.369Z,98809.59
2023-03-30T15:06:02.778Z,98810.47
2023-03-30T15:08:35.448Z,98822.25
2023-03-30T15:11:08.206Z,98830.66
2023-03-30T15:13:40.730Z,98830.66
2023-03-30T15:16:07.878Z,98830.59
2023-03-30T15:18:36.522Z,98825.50
2023-03-30T15:21:03.326Z,98828.91
2023-03-30T15:23:33.360Z,98825.53
2023-03-30T15:26:01.495Z,98832.34
2023-03-30T15:28:30.671Z,98837.31
2023-03-30T15:30:58.672Z,98832.34
2023-03-30T15:33:29.574Z,98855.22
2023-03-30T15:35:56.533Z,98855.84
2023-03-30T15:38:31.125Z,98843.84
2023-03-30T15:40:57.932Z,98844.56
2023-03-30T15:43:26.092Z,98844.41
2023-03-30T15:45:52.817Z,98844.34
2023-03-30T15:48:21.903Z,98845.34
2023-03-30T15:50:51.249Z,98838.47
2023-03-30T15:53:20.938Z,98836.78
2023-03-30T15:55:50.745Z,98847.75
2023-03-30T15:58:21.369Z,98838.19
2023-03-30T16:00:48.484Z,98834.91
2023-03-30T16:03:19.274Z,98840.03
2023-03-30T16:05:46.010Z,98835.63
2023-03-30T16:08:12.656Z,98843.50
2023-03-30T16:10:39.364Z,98838.41
2023-03-30T16:13:07.054Z,98843.50
2023-03-30T16:15:33.800Z,98853.03
2023-03-30T16:18:00.696Z,98861.66
2023-03-30T16:20:29.077Z,98856.66
2023-03-30T16:22:56.155Z,98861.88
2023-03-30T16:25:34.144Z,98855.38
2023-03-30T16:28:14.134Z,98853.69
2023-03-30T16:30:41.584Z,98857.91
2023-03-30T16:33:08.169Z,98855.28
2023-03-30T16:35:35.106Z,98857.78
2023-03-30T16:38:01.671Z,98863.53
2023-03-30T16:40:31.436Z,98867.44
2023-03-30T16:42:58.544Z,98864.63
2023-03-30T16:45:25.700Z,98862.59
2023-03-30T16:47:52.486Z,98870.19
2023-03-30T16:50:23.754Z,98873.63
2023-03-30T16:52:51.493Z,98883.13
2023-03-30T16:55:18.689Z,98874.44
2023-03-30T16:57:45.644Z,98888.66
2023-03-30T17:00:24.485Z,98884.22
2023-03-30T17:02:51.739Z,98862.97
2023-03-30T17:05:18.607Z,98869.81
2023-03-30T17:07:45.573Z,98869.94
2023-03-30T17:10:29.013Z,98866.59
2023-03-30T17:12:55.877Z,98870.03
2023-03-30T17:15:23.573Z,98866.59
2023-03-30T17:17:51.015Z,98868.16
2023-03-30T17:20:20.093Z,98872.09
2023-03-30T17:22:46.802Z,98868.94
2023-03-30T17:25:14.514Z,98860.34
2023-03-30T17:27:41.792Z,98861.25
2023-03-30T17:30:28.510Z,98860.41
2023-03-30T17:32:56.941Z,98876.31
2023-03-30T17:35:25.045Z,98863.63
2023-03-30T17:37:52.301Z,98855.44
2023-03-30T17:40:23.440Z,98850.38
2023-03-30T17:42:50.463Z,98872.25
2023-03-30T17:45:18.495Z,98872.34
2023-03-30T17:47:45.786Z,98862.09
2023-03-30T17:50:20.461Z,98871.25
2023-03-30T17:52:47.593Z,98869.09
2023-03-30T17:55:14.665Z,98865.88
2023-03-30T17:57:41.349Z,98859.84
2023-03-30T18:00:18.670Z,98871.06
2023-03-30T18:02:45.792Z,98876.88
2023-03-30T18:05:13.226Z,98862.41
2023-03-30T18:07:39.983Z,98852.13
2023-03-30T18:10:16.802Z,98864.25
2023-03-30T18:12:43.432Z,98869.13
2023-03-30T18:15:10.602Z,98865.84
2023-03-30T18:17:37.844Z,98859.84
2023-03-30T18:20:18.126Z,98863.09
2023-03-30T18:22:45.240Z,98857.22
2023-03-30T18:25:21.968Z,98851.44
2023-03-30T18:27:56.648Z,98846.34
2023-03-30T18:30:25.744Z,98843.00
2023-03-30T18:32:52.534Z,98868.41
2023-03-30T18:35:19.939Z,98852.13
2023-03-30T18:37:46.995Z,98858.88
2023-03-30T18:40:15.438Z,98861.19
2023-03-30T18:42:45.577Z,98847.72
2023-03-30T18:45:16.557Z,98845.19
2023-03-30T18:47:43.759Z,98838.53
2023-03-30T18:50:19.100Z,98836.81
2023-03-30T18:52:46.130Z,98828.31
2023-03-30T18:55:13.507Z,98823.34
2023-03-30T18:57:40.841Z,98829.38
2023-03-30T19:00:14.378Z,98830.19
2023-03-30T19:02:41.438Z,98837.00
2023-03-30T19:05:08.389Z,98833.75
2023-03-30T19:07:35.165Z,98829.47
2023-03-30T19:10:02.162Z,98830.31
2023-03-30T19:12:28.798Z,98824.34
2023-03-30T19:14:55.446Z,98824.38
2023-03-30T19:17:22.057Z,98811.56
2023-03-30T19:19:48.666Z,98817.44
2023-03-30T19:22:15.317Z,98830.16
2023-03-30T19:24:41.901Z,98825.84
2023-03-30T19:27:08.582Z,98816.59
2023-03-30T19:29:38.253Z,98824.94
2023-03-30T19:32:04.891Z,98813.09
2023-03-30T19:34:31.643Z,98809.63
2023-03-30T19:36:58.765Z,98814.75
2023-03-30T19:39:25.736Z,98806.19
2023-03-30T19:41:52.347Z,98802.72
2023-03-30T19:44:18.884Z,98801.16
2023-03-30T19:46:45.467Z,98808.91
2023-03-30T19:49:12.186Z,98799.56
2023-03-30T19:51:38.750Z,98802.03
2023-03-30T19:54:05.625Z,98799.50
2023-03-30T19:56:32.195Z,98794.34
2023-03-30T19:58:58.951Z,98796.91
2023-03-30T20:01:25.760Z,98794.34
2023-03-30T20:03:52.528Z,98789.34
2023-03-30T20:06:19.285Z,98790.19
2023-03-30T20:08:46.588Z,98787.56
2023-03-30T20:11:13.277Z,98778.22
2023-03-30T20:13:45.548Z,98784.13
2023-03-30T20:16:20.427Z,98782.47
2023-03-30T20:18:47.813Z,98780.81
2023-03-30T20:21:14.463Z,98784.97
2023-03-30T20:23:41.152Z,98779.22
2023-03-30T20:26:07.934Z,98775.66
2023-03-30T20:28:34.675Z,98773.84
2023-03-30T20:31:02.005Z,98773.91
2023-03-30T20:33:30.554Z,98775.50
2023-03-30T20:35:58.453Z,98769.59
2023-03-30T20:38:25.284Z,98766.97
2023-03-30T20:40:56.616Z,98760.97
2023-03-30T20:43:26.043Z,98763.59
2023-03-30T20:46:09.594Z,98757.03
2023-03-30T20:48:39.279Z,98756.88
2023-03-30T20:51:07.431Z,98753.50
2023-03-30T20:53:34.642Z,98752.00
2023-03-30T20:56:02.513Z,98740.75
2023-03-30T20:58:29.790Z,98751.66
2023-03-30T21:00:59.711Z,98746.56
2023-03-30T21:03:29.221Z,98750.00
2023-03-30T21:06:00.546Z,98741.59
2023-03-30T21:08:27.487Z,98735.47
2023-03-30T21:10:54.355Z,98740.66
2023-03-30T21:13:21.142Z,98742.31
2023-03-30T21:15:47.696Z,98743.13
2023-03-30T21:18:14.244Z,98743.16
2023-03-30T21:20:40.838Z,98742.47
2023-03-30T21:23:07.511Z,98738.09
2023-03-30T21:25:34.075Z,98736.41
2023-03-30T21:28:00.658Z,98731.25
2023-03-30T21:30:28.419Z,98727.91
2023-03-30T21:32:55.048Z,98717.69
2023-03-30T21:35:21.646Z,98724.44
2023-03-30T21:37:48.176Z,98726.16
2023-03-30T21:40:15.045Z,98721.38
2023-03-30T21:42:41.694Z,98728.06
2023-03-30T21:45:10.633Z,98728.16
2023-03-30T21:47:37.240Z,98735.75
2023-03-30T21:50:04.626Z,98728.88
2023-03-30T21:52:31.255Z,98731.44
2023-03-30T21:54:57.810Z,98726.47
2023-03-30T21:57:24.627Z,98728.09
2023-03-30T21:59:51.212Z,98734.06
2023-03-30T22:02:17.897Z,98728.88
2023-03-30T22:04:44.697Z,98732.16
2023-03-30T22:07:11.747Z,98730.44
2023-03-30T22:09:38.366Z,98729.50
2023-03-30T22:12:05.013Z,98723.47
2023-03-30T22:14:31.622Z,98729.50
2023-03-30T22:16:58.651Z,98728.56
2023-03-30T22:19:25.244Z,98727.75
2023-03-30T22:21:51.993Z,98718.63
2023-03-30T22:24:19.393Z,98714.19
2023-03-30T22:26:46.167Z,98724.31
2023-03-30T22:29:13.117Z,98722.72
2023-03-30T22:31:43.063Z,98706.56
2023-03-30T22:34:09.632Z,98710.03
2023-03-30T22:36:36.341Z,98716.78
2023-03-30T22:39:04.124Z,98717.63
2023-03-30T22:41:30.937Z,98717.56
2023-03-30T22:43:57.967Z,98709.91
2023-03-30T22:46:25.946Z,98714.81
2023-03-30T22:48:55.555Z,98711.41
2023-03-30T22:51:28.503Z,98706.31
2023-03-30T22:53:56.090Z,98696.13
2023-03-30T22:56:22.625Z,98700.38
2023-03-30T22:58:49.218Z,98691.88
2023-03-30T23:01:15.996Z,98706.25
2023-03-30T23:03:42.658Z,98705.41
2023-03-30T23:06:09.525Z,98698.66
2023-03-30T23:08:36.488Z,98706.22
2023-03-30T23:11:06.506Z,98700.41
2023-03-30T23:13:37.774Z,98692.75
2023-03-30T23:16:07.577Z,98685.09
2023-03-30T23:18:34.744Z,98684.28
2023-03-30T23:21:06.327Z,98686.75
2023-03-30T23:23:34.695Z,98679.13
2023-03-30T23:26:03.003Z,98679.91
2023-03-30T23:28:32.754Z,98670.56
2023-03-30T23:31:06.267Z,98680.75
2023-03-30T23:33:32.822Z,98674.06
2023-03-30T23:35:59.429Z,98672.25
2023-03-30T23:38:25.963Z,98673.88
2023-03-30T23:40:56.635Z,98670.31
2023-03-30T23:43:23.184Z,98656.84
2023-03-30T23:45:49.768Z,98660.19
2023-03-30T23:48:16.427Z,98668.03
2023-03-30T23:50:44.891Z,98662.78
2023-03-30T23:53:11.518Z,98666.13
2023-03-30T23:55:38.337Z,98658.50
2023-03-30T23:58:04.923Z,98654.06
